Time;durP1;ratioP1;P1;durP2;ratioP2;P2;SDS_P1;SDS_P2;PMS_P1;PMS_P2;Temp;Humidity;BMP_temperature;BMP_pressure;BME280_temperature;BME280_humidity;BME280_pressure;Samples;Min_cycle;Max_cycle;Signal;HPM_P1;HPM_P2
2022/07/02 00:00:15;;;;;;;16.30;10.73;;;;;;;24.98;55.58;99404.41;4994547;28;20132;-75
2022/07/02 00:02:43;;;;;;;14.77;11.82;;;;;;;25.31;54.52;99402.56;4994625;28;20080;-75
2022/07/02 00:05:13;;;;;;;14.55;10.57;;;;;;;25.31;54.67;99402.56;5012196;28;20504;-75
2022/07/02 00:07:38;;;;;;;17.85;12.32;;;;;;;25.23;55.38;99401.91;5012238;28;20025;-75
2022/07/02 00:10:04;;;;;;;18.25;10.82;;;;;;;24.99;55.90;99401.13;5012055;28;20100;-75
2022/07/02 00:12:30;;;;;;;21.20;10.38;;;;;;;24.80;56.48;99411.28;5011886;28;20049;-75
2022/07/02 00:14:59;;;;;;;16.00;9.93;;;;;;;24.09;58.21;99409.06;5011984;28;20022;-75
2022/07/02 00:17:26;;;;;;;11.88;9.98;;;;;;;23.97;58.49;99414.06;4994405;28;20044;-75
2022/07/02 00:19:53;;;;;;;11.00;9.43;;;;;;;24.52;57.19;99419.03;5011689;28;20511;-75
2022/07/02 00:22:19;;;;;;;16.85;9.70;;;;;;;24.59;56.64;99409.53;5011964;28;20036;-75
2022/07/02 00:24:46;;;;;;;11.55;10.00;;;;;;;24.43;57.03;99422.44;4994058;28;20029;-75
2022/07/02 00:27:17;;;;;;;14.02;10.57;;;;;;;24.11;58.41;99426.56;4994301;28;20053;-75
2022/07/02 00:29:59;;;;;;;15.13;11.02;;;;;;;23.42;60.58;99415.97;4994165;28;20128;-75
2022/07/02 00:32:27;;;;;;;16.75;10.60;;;;;;;22.83;62.36;99415.72;5011798;28;20109;-75
2022/07/02 00:34:55;;;;;;;21.70;10.98;;;;;;;22.62;63.35;99427.28;5011632;28;20080;-75
2022/07/02 00:37:21;;;;;;;14.43;10.10;;;;;;;22.54;63.73;99427.34;5011648;28;20021;-75
2022/07/02 00:39:47;;;;;;;14.45;10.25;;;;;;;22.45;64.08;99421.28;5011489;28;20567;-75
2022/07/02 00:42:14;;;;;;;12.45;11.15;;;;;;;22.32;64.63;99428.69;5011501;28;20029;-75
2022/07/02 00:44:40;;;;;;;13.90;11.40;;;;;;;22.34;64.56;99424.19;5011491;28;20036;-76
2022/07/02 00:47:08;;;;;;;11.50;10.30;;;;;;;22.67;63.28;99423.97;5011625;28;20050;-75
2022/07/02 00:49:36;;;;;;;16.45;10.23;;;;;;;22.85;62.56;99421.81;5011367;28;20021;-75
2022/07/02 00:52:03;;;;;;;12.80;10.15;;;;;;;22.79;62.35;99412.06;4993948;28;20025;-75
2022/07/02 00:54:28;;;;;;;18.23;11.15;;;;;;;22.99;61.96;99414.34;5011606;28;20361;-75
2022/07/02 00:56:54;;;;;;;12.68;11.25;;;;;;;22.95;62.40;99428.63;5011411;28;20030;-75
2022/07/02 00:59:22;;;;;;;16.33;9.82;;;;;;;23.04;61.92;99428.13;5011230;28;20088;-75
2022/07/02 01:01:47;;;;;;;12.30;10.60;;;;;;;23.08;61.72;99413.84;4993610;28;20033;-75
2022/07/02 01:04:15;;;;;;;15.63;10.82;;;;;;;23.10;61.97;99420.75;4993064;28;20030;-75
2022/07/02 01:06:42;;;;;;;14.98;11.00;;;;;;;23.25;61.28;99418.56;5006425;28;20029;-75
2022/07/02 01:11:58;;;;;;;11.00;9.20;;;;;;;23.76;59.08;99420.88;5005729;28;20165;-75
2022/07/02 01:14:24;;;;;;;11.02;8.95;;;;;;;23.89;58.92;99414.59;5011076;28;20091;-75
2022/07/02 01:16:50;;;;;;;12.35;9.93;;;;;;;24.07;58.38;99411.53;4993614;28;20105;-75
2022/07/02 01:19:17;;;;;;;21.27;9.63;;;;;;;23.93;58.91;99424.75;5011121;28;20034;-75
2022/07/02 01:22:04;;;;;;;12.32;9.57;;;;;;;23.98;58.44;99427.09;5011208;28;20033;-75
2022/07/02 01:24:30;;;;;;;12.40;9.50;;;;;;;23.93;58.47;99415.34;5011179;28;20032;-75
2022/07/02 01:26:55;;;;;;;10.77;9.32;;;;;;;23.98;58.62;99414.91;5011219;28;20485;-75
2022/07/02 01:29:21;;;;;;;10.93;9.88;;;;;;;24.13;57.88;99420.44;4993408;28;20034;-75
2022/07/02 01:31:46;;;;;;;12.57;10.55;;;;;;;23.84;59.31;99419.56;5011140;28;20034;-75
2022/07/02 01:34:11;;;;;;;16.58;11.73;;;;;;;23.78;59.64;99423.31;4993391;28;20034;-75
2022/07/02 01:36:37;;;;;;;12.82;10.20;;;;;;;23.33;61.15;99410.78;5011156;28;20539;-75
2022/07/02 01:39:02;;;;;;;13.77;10.25;;;;;;;23.34;61.02;99418.09;4993480;28;20052;-75
2022/07/02 01:41:40;;;;;;;14.10;9.13;;;;;;;23.75;59.35;99418.44;5010682;28;20144;-75
2022/07/02 01:44:07;;;;;;;22.25;11.68;;;;;;;23.67;59.59;99412.84;4993462;28;20412;-75
2022/07/02 01:46:33;;;;;;;15.55;10.52;;;;;;;23.61;60.09;99405.97;5010746;28;20062;-75
2022/07/02 01:48:59;;;;;;;19.98;10.05;;;;;;;23.67;60.21;99407.13;5010864;28;20034;-75
2022/07/02 01:51:25;;;;;;;24.90;11.07;;;;;;;23.76;59.44;99408.63;4993205;28;20056;-75
2022/07/02 01:53:50;;;;;;;15.35;10.77;;;;;;;23.50;59.93;99405.28;4993303;28;20116;-75
2022/07/02 01:56:16;;;;;;;13.10;10.23;;;;;;;23.17;60.62;99411.31;4993214;28;20029;-75
2022/07/02 01:58:42;;;;;;;12.57;10.52;;;;;;;22.85;61.78;99409.56;5010914;28;20018;-75
2022/07/02 02:01:07;;;;;;;19.80;11.80;;;;;;;22.53;63.20;99407.81;4993148;28;20362;-75
2022/07/02 02:03:33;;;;;;;19.08;10.80;;;;;;;22.50;63.40;99403.75;5010861;28;20107;-75
2022/07/02 02:05:58;;;;;;;15.35;11.27;;;;;;;22.22;64.44;99401.88;5010665;28;20511;-75
2022/07/02 02:08:24;;;;;;;21.02;11.02;;;;;;;22.53;63.34;99416.38;5010806;28;20060;-75
2022/07/02 02:10:49;;;;;;;12.43;10.80;;;;;;;21.96;65.13;99406.94;4993416;28;20033;-75
2022/07/02 02:13:15;;;;;;;14.23;11.20;;;;;;;21.88;65.16;99406.16;5010703;28;20109;-75
2022/07/02 02:15:40;;;;;;;11.45;10.35;;;;;;;21.90;64.57;99409.41;5012786;28;20133;-75
2022/07/02 02:18:06;;;;;;;15.23;10.02;;;;;;;21.50;66.07;99406.69;4996567;28;20026;-75
2022/07/02 02:20:31;;;;;;;11.77;10.25;;;;;;;21.58;65.99;99410.31;4996465;28;20498;-75
2022/07/02 02:22:57;;;;;;;14.05;11.00;;;;;;;21.58;65.68;99416.81;5014115;28;20025;-75
2022/07/02 02:25:22;;;;;;;21.60;11.40;;;;;;;21.64;65.52;99420.06;4996335;28;20045;-75
2022/07/02 02:27:48;;;;;;;17.23;10.95;;;;;;;21.81;64.83;99415.53;5014660;28;20026;-75
2022/07/02 02:30:14;;;;;;;11.50;10.40;;;;;;;21.74;64.64;99416.38;4996352;28;20136;-75
2022/07/02 02:32:40;;;;;;;13.90;10.73;;;;;;;21.55;65.37;99425.34;4996311;28;20026;-75
2022/07/02 02:35:06;;;;;;;15.32;10.55;;;;;;;21.50;65.95;99415.22;5013807;28;20099;-75
2022/07/02 02:37:31;;;;;;;11.82;10.65;;;;;;;21.17;66.78;99423.00;5013812;28;20030;-75
2022/07/02 02:39:57;;;;;;;11.95;10.70;;;;;;;21.26;66.51;99425.44;5012124;28;20036;-75
2022/07/02 02:42:22;;;;;;;14.13;10.43;;;;;;;21.07;67.62;99435.22;4996054;28;20034;-74
2022/07/02 02:44:48;;;;;;;17.52;12.80;;;;;;;21.05;67.46;99427.09;4996328;28;20025;-75
2022/07/02 02:47:13;;;;;;;23.98;12.55;;;;;;;21.24;67.06;99425.06;4995803;28;20092;-75
2022/07/02 02:49:39;;;;;;;14.00;11.20;;;;;;;21.11;66.96;99430.34;5013939;28;20088;-75
2022/07/02 02:52:04;;;;;;;19.02;12.80;;;;;;;21.11;66.74;99433.19;5013448;28;20121;-75
2022/07/02 02:54:30;;;;;;;22.15;11.85;;;;;;;21.42;65.79;99442.06;5013599;28;20036;-75
2022/07/02 02:56:56;;;;;;;15.73;13.02;;;;;;;21.38;65.94;99444.94;4995719;28;20029;-75
2022/07/02 02:59:21;;;;;;;19.33;12.38;;;;;;;21.53;65.27;99442.84;5013553;28;20481;-75
2022/07/02 03:01:47;;;;;;;50.55;15.10;;;;;;;21.69;64.69;99450.16;5013195;28;20536;-75
2022/07/02 03:04:13;;;;;;;18.98;12.20;;;;;;;21.71;64.78;99448.50;5013327;28;20060;-75
2022/07/02 03:06:38;;;;;;;24.70;14.50;;;;;;;21.50;65.12;99448.56;5013167;28;20021;-75
2022/07/02 03:09:04;;;;;;;23.20;13.20;;;;;;;21.11;66.64;99448.19;5013299;28;20029;-74
2022/07/02 03:11:31;;;;;;;20.33;10.40;;;;;;;21.05;66.67;99455.53;4995528;28;20025;-74
2022/07/02 03:13:57;;;;;;;17.00;11.10;;;;;;;20.85;67.86;99449.44;4995600;28;20038;-74
2022/07/02 03:16:22;;;;;;;14.05;11.10;;;;;;;20.58;69.00;99459.13;5013151;28;20034;-75
2022/07/02 03:18:48;;;;;;;13.68;10.63;;;;;;;20.63;68.96;99449.41;5013120;28;20500;-75
2022/07/02 03:21:14;;;;;;;13.80;10.90;;;;;;;20.48;69.46;99446.56;5012885;28;20119;-75
2022/07/02 03:23:39;;;;;;;31.63;12.35;;;;;;;20.50;69.80;99445.34;5012844;28;20041;-75
2022/07/02 03:26:04;;;;;;;18.20;12.77;;;;;;;20.53;69.51;99456.72;5012278;28;20030;-74
2022/07/02 03:28:30;;;;;;;34.08;12.35;;;;;;;20.59;69.29;99460.75;5013011;28;20088;-74
2022/07/02 03:30:56;;;;;;;18.70;11.63;;;;;;;20.69;69.34;99472.56;5013445;28;20022;-74
2022/07/02 03:33:22;;;;;;;13.40;11.82;;;;;;;20.60;69.53;99479.44;4995632;28;20037;-74
2022/07/02 03:35:47;;;;;;;15.75;12.23;;;;;;;20.46;70.12;99479.41;5013330;28;20030;-75
2022/07/02 03:38:13;;;;;;;17.52;12.43;;;;;;;20.49;70.66;99481.44;5013122;28;20405;-75
2022/07/02 03:40:38;;;;;;;16.38;11.68;;;;;;;20.56;70.16;99484.31;5010466;28;20031;-75
2022/07/02 03:43:04;;;;;;;16.10;10.05;;;;;;;20.57;70.14;99485.09;5013176;28;20402;-75
2022/07/02 03:45:29;;;;;;;20.10;11.45;;;;;;;20.67;69.98;99490.00;5012308;28;20045;-75
2022/07/02 03:47:55;;;;;;;19.58;11.70;;;;;;;20.62;70.39;99498.94;5012155;28;20037;-75
2022/07/02 03:50:20;;;;;;;21.25;12.00;;;;;;;20.58;70.37;99493.22;5013047;28;20018;-74
2022/07/02 03:52:46;;;;;;;22.73;12.45;;;;;;;20.66;70.42;99493.25;5013067;28;20053;-78
2022/07/02 03:55:11;;;;;;;18.00;11.13;;;;;;;20.76;70.27;99498.16;5013156;28;20026;-76
2022/07/02 03:57:37;;;;;;;14.30;12.05;;;;;;;20.71;70.09;99512.75;5012499;28;20457;-77
2022/07/02 04:00:04;;;;;;;16.83;11.40;;;;;;;20.69;71.02;99500.97;5013102;28;20045;-76
2022/07/02 04:02:30;;;;;;;36.28;12.75;;;;;;;20.84;70.40;99493.31;5012114;28;20025;-75
2022/07/02 04:04:55;;;;;;;21.30;12.95;;;;;;;20.93;70.24;99507.13;5012718;28;20045;-75
2022/07/02 04:07:21;;;;;;;19.17;11.50;;;;;;;20.77;70.74;99511.94;5012839;28;20105;-76
2022/07/02 04:09:46;;;;;;;14.18;11.57;;;;;;;20.84;71.24;99516.84;5012501;28;20445;-75
2022/07/02 04:12:12;;;;;;;18.80;12.52;;;;;;;20.85;71.56;99518.47;4994550;28;20187;-80
2022/07/02 04:14:37;;;;;;;33.08;12.23;;;;;;;20.78;72.30;99512.75;4994860;28;20026;-75
2022/07/02 04:17:03;;;;;;;16.75;12.10;;;;;;;20.95;72.22;99510.34;5012284;28;20032;-73
2022/07/02 04:19:29;;;;;;;17.15;12.07;;;;;;;21.05;71.95;99498.19;5012400;28;20083;-77
2022/07/02 04:21:54;;;;;;;22.52;12.02;;;;;;;21.11;71.38;99509.97;5012677;28;20079;-77
2022/07/02 04:24:20;;;;;;;18.02;12.77;;;;;;;21.12;71.73;99512.41;4994888;28;20033;-79
2022/07/02 04:26:46;;;;;;;15.82;12.57;;;;;;;21.39;70.29;99508.31;4994748;28;20030;-75
2022/07/02 04:29:11;;;;;;;16.70;13.40;;;;;;;21.47;69.25;99512.78;4994807;28;20064;-77
2022/07/02 04:31:37;;;;;;;19.02;11.55;;;;;;;21.54;68.23;99507.09;5012408;28;20029;-76
2022/07/02 04:34:02;;;;;;;17.50;12.48;;;;;;;21.68;68.18;99509.09;5012364;28;20418;-73
2022/07/02 04:36:28;;;;;;;21.30;12.00;;;;;;;21.85;67.67;99509.47;4994665;28;20053;-74
2022/07/02 04:38:54;;;;;;;36.10;13.02;;;;;;;21.88;67.65;99503.75;4993868;28;20026;-76
2022/07/02 04:41:19;;;;;;;20.80;11.20;;;;;;;21.89;67.13;99501.72;5012064;28;20030;-73
2022/07/02 04:43:45;;;;;;;16.60;11.65;;;;;;;22.07;66.46;99503.69;4994374;28;20040;-79
2022/07/02 04:46:10;;;;;;;17.20;10.68;;;;;;;22.17;66.20;99494.28;4994574;28;20085;-78
2022/07/02 04:48:37;;;;;;;18.65;11.60;;;;;;;22.41;65.98;99503.94;5012167;28;20036;-77
2022/07/02 04:51:02;;;;;;;17.95;12.60;;;;;;;22.60;65.27;99501.81;5012448;28;20114;-77
2022/07/02 04:53:28;;;;;;;20.55;13.02;;;;;;;22.63;64.96;99492.44;4994226;28;20509;-77
2022/07/02 04:55:53;;;;;;;21.88;13.50;;;;;;;22.91;64.36;99504.84;4994588;28;20496;-76
2022/07/02 04:58:19;;;;;;;17.63;11.77;;;;;;;22.86;63.41;99499.56;4994635;28;20037;-76
2022/07/02 05:00:46;;;;;;;19.65;12.45;;;;;;;22.74;64.33;99500.91;4994905;28;20041;-80
2022/07/02 05:03:11;;;;;;;20.42;11.68;;;;;;;23.08;63.09;99491.69;4994307;28;20029;-78
2022/07/02 05:05:37;;;;;;;17.85;12.45;;;;;;;23.41;62.26;99492.22;4994268;28;20041;-80
2022/07/02 05:08:02;;;;;;;21.55;10.90;;;;;;;23.60;61.41;99481.41;4994327;28;20030;-78
2022/07/02 05:10:28;;;;;;;16.13;11.15;;;;;;;23.52;60.62;99491.28;5012125;28;20024;-78
2022/07/02 05:12:53;;;;;;;16.88;11.60;;;;;;;23.58;60.92;99483.88;4994198;28;20398;-78
2022/07/02 05:15:19;;;;;;;21.58;12.00;;;;;;;23.73;61.26;99489.44;4994600;28;20037;-80
2022/07/02 05:17:44;;;;;;;16.08;10.10;;;;;;;23.80;60.57;99489.38;4994050;28;20439;-80
2022/07/02 05:20:10;;;;;;;20.05;11.65;;;;;;;23.87;60.49;99483.56;4994456;28;20033;-76
2022/07/02 05:22:35;;;;;;;16.13;11.10;;;;;;;24.06;59.70;99482.13;4976093;28;20049;-81
2022/07/02 05:25:01;;;;;;;16.63;10.15;;;;;;;24.34;59.09;99496.47;4974437;28;20022;-80
2022/07/02 05:27:26;;;;;;;17.85;9.18;;;;;;;24.34;58.25;99493.59;4974487;28;20468;-80
2022/07/02 05:29:52;;;;;;;11.90;10.70;;;;;;;24.53;58.37;99500.69;4992188;28;20552;-79
2022/07/02 05:32:17;;;;;;;19.40;9.75;;;;;;;24.49;58.34;99500.72;4974512;28;20060;-78
2022/07/02 05:34:43;;;;;;;22.52;10.90;;;;;;;24.33;58.58;99501.38;4974414;28;20417;-78
2022/07/02 05:37:08;;;;;;;12.80;10.55;;;;;;;24.32;58.26;99490.38;4995374;28;20411;-78
2022/07/02 05:39:34;;;;;;;18.52;10.20;;;;;;;24.47;58.16;99491.78;4993551;28;20064;-79
2022/07/02 05:42:00;;;;;;;17.65;10.23;;;;;;;24.60;57.73;99492.00;5011632;28;20033;-78
2022/07/02 05:44:25;;;;;;;11.95;10.02;;;;;;;24.77;57.25;99503.63;4993720;28;20025;-79
2022/07/02 05:46:51;;;;;;;13.85;10.05;;;;;;;24.54;58.56;99497.41;4993597;28;20042;-76
2022/07/02 05:49:16;;;;;;;12.02;10.65;;;;;;;24.61;57.91;99505.06;4995284;28;20037;-78
2022/07/02 05:51:42;;;;;;;11.95;10.75;;;;;;;24.73;57.49;99497.13;4997476;28;20018;-76
2022/07/02 05:54:07;;;;;;;13.32;10.25;;;;;;;24.86;57.62;99503.91;4997403;28;20033;-76
2022/07/02 05:56:32;;;;;;;12.60;10.45;;;;;;;25.18;56.84;99502.56;5015256;28;20041;-76
2022/07/02 05:58:59;;;;;;;14.27;10.88;;;;;;;25.52;54.88;99497.91;5004342;28;20053;-76
2022/07/02 06:01:25;;;;;;;14.98;11.63;;;;;;;25.76;54.61;99504.41;5014640;28;20018;-76
2022/07/02 06:03:50;;;;;;;16.48;10.35;;;;;;;26.01;52.50;99508.00;4997189;28;20018;-76
2022/07/02 06:09:00;;;;;;;15.02;11.15;;;;;;;26.43;53.50;99510.44;5015068;28;20121;-76
2022/07/02 06:11:25;;;;;;;13.10;10.88;;;;;;;26.42;52.44;99503.09;4997107;28;20109;-76
2022/07/02 06:13:51;;;;;;;18.80;10.25;;;;;;;26.54;52.76;99513.88;4990825;28;20034;-77
2022/07/02 06:16:16;;;;;;;21.95;11.38;;;;;;;26.70;52.57;99506.53;4982330;28;20049;-77
2022/07/02 06:18:42;;;;;;;20.15;11.25;;;;;;;26.89;51.33;99513.50;4997076;28;20211;-78
2022/07/02 06:21:07;;;;;;;16.55;11.20;;;;;;;26.85;51.65;99498.41;4997508;28;20030;-78
2022/07/02 06:23:32;;;;;;;17.70;10.95;;;;;;;26.88;50.92;99512.69;4997250;28;20128;-77
2022/07/02 06:25:58;;;;;;;14.52;10.30;;;;;;;27.11;50.63;99492.88;4996893;28;20030;-76
2022/07/02 06:28:24;;;;;;;12.60;10.02;;;;;;;27.21;48.94;99503.28;4996330;28;20581;-77
2022/07/02 06:30:49;;;;;;;14.63;9.75;;;;;;;27.01;50.03;99509.91;5014066;28;20026;-78
2022/07/02 06:33:15;;;;;;;16.00;9.68;;;;;;;27.32;49.89;99498.06;4996445;28;20029;-77
2022/07/02 06:35:42;;;;;;;59.03;38.33;;;;;;;27.45;49.40;99506.75;5013918;28;20101;-81
2022/07/02 06:38:08;;;;;;;16.08;12.18;;;;;;;27.82;48.76;99503.72;4996283;28;20034;-83
2022/07/02 06:40:33;;;;;;;40.78;36.47;;;;;;;27.82;48.12;99508.69;4995884;28;20052;-76
2022/07/02 06:42:59;;;;;;;30.42;12.70;;;;;;;28.16;48.90;99510.97;5014006;28;20526;-74
2022/07/02 06:45:24;;;;;;;14.23;11.35;;;;;;;28.30;46.83;99501.16;5013515;28;20382;-76
2022/07/02 06:47:50;;;;;;;66.05;59.55;;;;;;;27.87;46.89;99497.44;4996061;28;20026;-73
2022/07/02 06:50:18;;;;;;;16.67;9.93;;;;;;;28.10;46.65;99501.28;4996048;28;20026;-74
2022/07/02 06:52:45;;;;;;;16.05;12.57;;;;;;;28.37;47.33;99508.75;5013448;28;20081;-75
2022/07/02 06:55:11;;;;;;;31.73;28.30;;;;;;;28.67;46.91;99500.03;4995899;28;20034;-75
2022/07/02 06:57:37;;;;;;;39.53;36.03;;;;;;;28.54;46.30;99511.53;4995868;28;20032;-74
2022/07/02 07:00:04;;;;;;;11.40;10.32;;;;;;;28.86;46.21;99509.72;4995497;28;20029;-74
2022/07/02 07:02:30;;;;;;;9.75;8.77;;;;;;;28.89;44.84;99507.97;4995274;28;20030;-75
2022/07/02 07:04:56;;;;;;;10.88;9.20;;;;;;;29.03;46.28;99512.47;4995664;28;20080;-74
2022/07/02 07:07:27;;;;;;;12.13;9.13;;;;;;;29.18;45.99;99501.28;5013331;28;20489;-82
2022/07/02 07:09:54;;;;;;;11.15;8.98;;;;;;;29.18;44.85;99510.72;4995656;28;20088;-73
2022/07/02 07:12:19;;;;;;;11.13;8.93;;;;;;;29.35;44.58;99519.22;5013294;28;20030;-74
2022/07/02 07:14:45;;;;;;;45.75;40.83;;;;;;;29.39;45.04;99514.94;5012719;28;20416;-73
2022/07/02 07:17:11;;;;;;;16.25;9.63;;;;;;;29.63;44.80;99519.50;4976836;28;20026;-76
2022/07/02 07:19:36;;;;;;;18.65;16.85;;;;;;;29.71;45.17;99526.63;4995428;28;20037;-78
2022/07/02 07:22:02;;;;;;;94.45;85.50;;;;;;;29.40;43.73;99525.19;5013021;28;20095;-74
2022/07/02 07:24:27;;;;;;;16.40;10.57;;;;;;;29.67;43.85;99523.06;5012633;28;20032;-80
2022/07/02 07:26:53;;;;;;;11.85;9.48;;;;;;;29.91;43.21;99525.50;4995391;28;20037;-76
2022/07/02 07:29:18;;;;;;;19.08;9.70;;;;;;;29.95;42.67;99524.09;5012860;28;20075;-77
2022/07/02 07:31:44;;;;;;;16.38;10.55;;;;;;;30.21;42.58;99520.31;4995536;28;20108;-81
2022/07/02 07:34:10;;;;;;;9.32;8.25;;;;;;;30.07;42.29;99527.41;4996232;28;20036;-76
2022/07/02 07:36:36;;;;;;;17.83;9.10;;;;;;;30.20;42.07;99530.25;4995293;28;20030;-78
2022/07/02 07:39:03;;;;;;;15.23;9.05;;;;;;;30.28;41.36;99533.66;4995129;28;20122;-79
2022/07/02 07:41:30;;;;;;;12.32;9.93;;;;;;;30.07;40.45;99519.59;4994975;28;20504;-85
2022/07/02 07:43:55;;;;;;;28.90;16.85;;;;;;;29.48;42.07;99507.69;4995061;28;20026;-76
2022/07/02 07:46:21;;;;;;;15.80;10.98;;;;;;;29.88;41.29;99526.44;4994796;28;20045;-79
2022/07/02 07:48:47;;;;;;;31.83;27.00;;;;;;;30.10;42.35;99518.63;4978692;28;20183;-79
2022/07/02 07:51:14;;;;;;;25.02;19.42;;;;;;;30.03;42.01;99523.84;4992200;28;20022;-81
2022/07/02 07:53:39;;;;;;;17.60;10.27;;;;;;;30.36;41.46;99524.25;4992512;28;20034;-81
2022/07/02 07:56:05;;;;;;;15.35;8.35;;;;;;;30.46;41.32;99524.31;4994941;28;20018;-82
2022/07/02 07:58:33;;;;;;;11.52;9.30;;;;;;;30.70;42.07;99529.59;4986405;28;20524;-83
2022/07/02 08:01:00;;;;;;;19.45;10.05;;;;;;;31.04;40.42;99530.69;4999521;28;20515;-81
2022/07/02 08:03:25;;;;;;;12.55;9.02;;;;;;;31.06;40.43;99520.25;5012331;28;20021;-81
2022/07/02 09:51:15;;;;;;;18.13;8.45;;;;;;;32.79;33.58;99510.13;5036135;27;20603;-83
2022/07/02 09:53:48;;;;;;;10.50;8.25;;;;;;;33.17;34.10;99499.19;5055521;28;20122;-83
2022/07/02 09:56:13;;;;;;;16.67;7.43;;;;;;;33.49;33.44;99501.72;5045930;28;20605;-78
2022/07/02 09:58:39;;;;;;;10.75;8.32;;;;;;;33.67;32.83;99510.31;5045000;28;20025;-83
2022/07/02 10:01:04;;;;;;;29.48;8.32;;;;;;;33.45;33.11;99499.84;5045880;28;20036;-80
2022/07/02 10:03:30;;;;;;;10.52;8.05;;;;;;;33.86;32.80;99501.44;5045891;28;20036;-83
2022/07/02 10:05:56;;;;;;;8.15;7.00;;;;;;;34.20;32.59;99504.19;5045635;28;20472;-83
2022/07/02 10:08:22;;;;;;;10.80;6.63;;;;;;;34.41;31.47;99499.31;5044976;28;20511;-81
2022/07/02 10:10:49;;;;;;;8.82;7.95;;;;;;;34.46;33.04;99513.09;5044420;28;20116;-81
2022/07/02 10:13:16;;;;;;;8.20;7.50;;;;;;;34.53;31.88;99509.03;5044785;28;20329;-79
2022/07/02 10:16:03;;;;;;;12.27;6.80;;;;;;;34.54;32.54;99507.72;5045887;28;20036;-78
2022/07/02 10:18:29;;;;;;;12.93;7.30;;;;;;;34.51;32.48;99495.03;5045548;28;20071;-82
2022/07/02 10:20:59;;;;;;;11.43;7.55;;;;;;;34.88;30.77;99510.41;5049115;28;20504;-81
2022/07/02 10:23:26;;;;;;;8.25;5.72;;;;;;;35.00;29.01;99512.16;5049039;28;20027;-83
2022/07/02 10:25:53;;;;;;;13.55;6.28;;;;;;;34.92;29.47;99508.06;5048487;28;20465;-79
2022/07/02 10:28:18;;;;;;;6.80;6.13;;;;;;;35.07;30.02;99508.06;5048314;28;20029;-81
2022/07/02 10:30:44;;;;;;;10.82;6.20;;;;;;;34.99;28.08;99505.53;5047630;28;20083;-81
2022/07/02 10:33:31;;;;;;;9.00;6.35;;;;;;;35.13;28.95;99486.50;5045809;28;20080;-81
2022/07/02 10:35:59;;;;;;;7.97;6.50;;;;;;;35.30;28.15;99483.00;5047680;28;20033;-81
2022/07/02 10:38:34;;;;;;;8.88;6.28;;;;;;;35.43;29.13;99485.56;5046474;28;20132;-81
2022/07/02 10:41:01;;;;;;;7.43;6.43;;;;;;;35.50;28.98;99481.44;5046012;28;20021;-81
2022/07/02 10:43:28;;;;;;;10.30;7.35;;;;;;;35.45;30.17;99482.94;5040531;28;20554;-81
2022/07/02 10:46:05;;;;;;;7.72;6.78;;;;;;;35.37;29.06;99470.97;5027799;28;20028;-80
2022/07/02 10:48:35;;;;;;;10.70;6.47;;;;;;;35.40;27.95;99475.75;5026294;28;20124;-80
2022/07/02 10:51:02;;;;;;;10.15;6.32;;;;;;;35.38;28.74;99472.56;5027459;28;20500;-81
2022/07/02 10:53:34;;;;;;;8.18;6.22;;;;;;;35.60;28.50;99468.38;5032947;28;20432;-81
2022/07/02 10:56:02;;;;;;;7.20;6.53;;;;;;;35.45;26.29;99465.50;5026144;28;20040;-81
2022/07/02 10:58:32;;;;;;;10.77;6.22;;;;;;;35.67;28.87;99475.84;5028408;28;20485;-80
2022/07/02 11:01:11;;;;;;;9.70;7.60;;;;;;;35.81;28.10;99465.41;5043141;28;20550;-80
2022/07/02 11:03:37;;;;;;;13.05;6.80;;;;;;;35.72;28.80;99465.56;5033263;28;20462;-80
2022/07/02 11:06:18;;;;;;;11.55;6.47;;;;;;;35.75;27.28;99464.56;5034011;28;20108;-80
2022/07/02 11:08:48;;;;;;;8.52;6.20;;;;;;;35.73;26.42;99470.09;5017633;28;20500;-80
2022/07/02 11:11:18;;;;;;;7.30;6.47;;;;;;;35.84;26.84;99467.31;5033632;28;20032;-81
2022/07/02 11:13:55;;;;;;;7.95;6.28;;;;;;;35.42;29.74;99461.50;5032244;28;20116;-80
2022/07/02 11:16:25;;;;;;;10.93;7.07;;;;;;;35.40;28.34;99472.03;5033985;28;20452;-81
2022/07/02 11:18:52;;;;;;;12.60;6.30;;;;;;;35.24;28.33;99467.63;5032385;28;20027;-80
2022/07/02 11:21:19;;;;;;;7.10;6.50;;;;;;;35.36;28.94;99456.94;5032581;28;20393;-80
2022/07/02 11:23:45;;;;;;;11.68;6.60;;;;;;;35.61;28.21;99467.06;5032257;28;20033;-80
2022/07/02 11:26:18;;;;;;;9.65;6.50;;;;;;;35.93;27.77;99467.13;5032202;28;20028;-81
2022/07/02 11:28:44;;;;;;;6.40;5.57;;;;;;;36.14;27.50;99467.09;5032288;28;20036;-80
2022/07/02 11:31:10;;;;;;;7.47;6.65;;;;;;;36.15;26.40;99451.22;5032267;28;20109;-81
2022/07/02 11:33:41;;;;;;;7.50;6.15;;;;;;;35.84;26.11;99462.28;5033335;28;20033;-81
2022/07/02 11:36:06;;;;;;;12.07;7.18;;;;;;;35.92;26.46;99450.97;5026481;28;20546;-81
2022/07/02 11:38:45;;;;;;;8.18;7.28;;;;;;;35.95;27.55;99452.84;5020558;28;20049;-80
2022/07/02 11:41:27;;;;;;;11.18;7.32;;;;;;;36.08;27.51;99446.69;5026135;28;20105;-81
2022/07/02 11:43:55;;;;;;;15.00;6.40;;;;;;;36.27;27.41;99437.59;5028918;28;20583;-81
2022/07/02 11:46:25;;;;;;;11.15;7.47;;;;;;;36.25;27.21;99432.28;5031977;28;20488;-80
2022/07/02 11:48:52;;;;;;;11.20;6.50;;;;;;;35.99;27.42;99435.19;5031530;28;20108;-80
2022/07/02 11:51:21;;;;;;;18.25;7.70;;;;;;;35.77;27.48;99421.22;5013425;28;20412;-81
2022/07/02 11:53:57;;;;;;;;;;;;;;;36.00;27.57;99433.09;5012523;28;20030;-80
2022/07/02 11:56:22;;;;;;;10.18;6.40;;;;;;;35.95;27.74;99423.75;5012185;28;19916;-80
2022/07/02 11:58:48;;;;;;;8.85;6.63;;;;;;;35.89;27.39;99417.09;5029080;28;20021;-80
2022/07/02 12:01:31;;;;;;;10.35;7.47;;;;;;;35.97;26.74;99429.88;5032557;28;20071;-80
2022/07/02 12:04:04;;;;;;;13.90;5.82;;;;;;;36.14;26.29;99420.53;5032162;28;20484;-80
2022/07/02 12:06:34;;;;;;;7.90;6.05;;;;;;;36.33;26.79;99423.09;5032358;28;20112;-80
2022/07/02 12:09:00;;;;;;;10.23;6.75;;;;;;;36.53;25.67;99419.25;5032641;28;20067;-80
2022/07/02 12:11:27;;;;;;;13.15;6.18;;;;;;;36.27;25.65;99425.94;5032150;28;20476;-81
2022/07/02 12:13:54;;;;;;;10.25;7.22;;;;;;;36.38;26.73;99414.41;5030969;28;20120;-80
2022/07/02 12:16:27;;;;;;;12.63;7.10;;;;;;;36.36;26.27;99411.19;5021411;28;20021;-79
2022/07/02 12:19:10;;;;;;;10.85;6.35;;;;;;;36.53;27.16;99411.31;5012251;28;20080;-80
2022/07/02 12:21:44;;;;;;;15.38;7.20;;;;;;;36.56;27.18;99409.50;5015923;28;20028;-80
2022/07/02 12:24:22;;;;;;;6.78;6.18;;;;;;;36.35;27.45;99421.25;5033198;28;20017;-80
2022/07/02 12:26:55;;;;;;;6.95;6.15;;;;;;;36.21;26.79;99413.44;5031194;28;20030;-80
2022/07/02 12:32:10;;;;;;;14.65;7.40;;;;;;;36.33;27.65;99414.34;5019263;28;20040;-80
2022/07/02 12:34:37;;;;;;;11.57;6.60;;;;;;;36.48;28.28;99415.00;5030534;28;20523;-80
2022/07/02 12:37:03;;;;;;;7.80;6.80;;;;;;;36.48;27.13;99409.16;5027893;28;20029;-80
2022/07/02 12:39:43;;;;;;;7.95;6.72;;;;;;;36.49;26.64;99410.75;5030841;28;20423;-81
2022/07/02 12:42:23;;;;;;;13.95;7.50;;;;;;;36.50;26.67;99415.28;5032269;28;20032;-80
2022/07/02 12:44:57;;;;;;;12.07;6.45;;;;;;;36.61;27.53;99416.69;5030331;28;20032;-81
2022/07/02 12:47:34;;;;;;;8.95;6.65;;;;;;;36.69;28.33;99412.00;5030666;28;20087;-81
2022/07/02 12:50:12;;;;;;;8.15;7.22;;;;;;;36.31;27.55;99416.97;5024699;28;20046;-80
2022/07/02 12:52:53;;;;;;;10.82;6.75;;;;;;;36.15;27.88;99418.44;5027310;28;20087;-79
2022/07/02 12:55:27;;;;;;;9.30;7.32;;;;;;;35.83;27.86;99408.31;5032589;28;20083;-79
2022/07/02 12:57:59;;;;;;;7.00;6.40;;;;;;;36.34;27.97;99408.00;5032884;28;20025;-80
2022/07/02 13:00:26;;;;;;;11.93;7.53;;;;;;;36.25;28.29;99411.09;5031945;28;20376;-78
2022/07/02 13:03:00;;;;;;;7.15;6.43;;;;;;;36.01;28.67;99412.19;5026698;28;20084;-80
2022/07/02 13:05:25;;;;;;;11.73;6.45;;;;;;;36.30;29.17;99409.53;5028668;28;20025;-79
2022/07/02 13:07:51;;;;;;;11.00;7.00;;;;;;;36.37;29.06;99409.88;5035687;28;20039;-80
2022/07/02 13:10:17;;;;;;;15.68;7.10;;;;;;;36.01;28.25;99409.28;5017716;28;20488;-83
2022/07/02 13:12:42;;;;;;;8.60;7.10;;;;;;;35.94;27.92;99404.72;5020781;28;20025;-79
2022/07/02 13:15:08;;;;;;;12.25;6.85;;;;;;;36.17;26.70;99392.53;5017203;28;20060;-78